createdAt,value
2018-09-13T00:00:10.247Z,14.90
2018-09-13T00:01:11.644Z,15.03
2018-09-13T00:02:13.027Z,14.98
2018-09-13T00:03:14.407Z,15.01
2018-09-13T00:04:15.785Z,15.00
2018-09-13T00:05:17.168Z,15.00
2018-09-13T00:06:18.557Z,14.94
2018-09-13T00:07:19.938Z,14.98
2018-09-13T00:08:21.325Z,14.90
2018-09-13T00:09:22.711Z,14.91
2018-09-13T00:10:24.097Z,15.00
2018-09-13T00:11:25.484Z,14.93
2018-09-13T00:12:26.860Z,15.00
2018-09-13T00:13:28.238Z,14.91
2018-09-13T00:14:29.636Z,14.97
2018-09-13T00:15:31.030Z,14.94
2018-09-13T00:16:32.411Z,14.90
2018-09-13T00:17:33.788Z,14.85
2018-09-13T00:18:35.182Z,14.87
2018-09-13T00:19:36.567Z,14.94
2018-09-13T00:20:37.964Z,14.93
2018-09-13T00:21:39.344Z,14.94
2018-09-13T00:22:40.722Z,14.90
2018-09-13T00:23:42.115Z,14.86
2018-09-13T00:24:43.488Z,14.94
2018-09-13T00:25:44.874Z,14.91
2018-09-13T00:26:46.263Z,14.94
2018-09-13T00:27:47.641Z,14.91
2018-09-13T00:28:49.021Z,14.86
2018-09-13T00:29:50.418Z,14.93
2018-09-13T00:30:51.801Z,14.91
2018-09-13T00:31:53.183Z,14.90
2018-09-13T00:32:54.567Z,14.94
2018-09-13T00:33:55.951Z,14.91
2018-09-13T00:34:57.329Z,14.85
2018-09-13T00:35:58.700Z,14.87
2018-09-13T00:37:00.092Z,14.93
2018-09-13T00:38:01.471Z,14.93
2018-09-13T00:39:02.878Z,14.91
2018-09-13T00:40:04.252Z,14.91
2018-09-13T00:41:05.635Z,15.03
2018-09-13T00:42:07.012Z,14.87
2018-09-13T00:43:08.407Z,14.93
2018-09-13T00:44:09.802Z,14.93
2018-09-13T00:45:11.185Z,14.91
2018-09-13T00:46:12.574Z,14.91
2018-09-13T00:47:13.962Z,14.93
2018-09-13T00:48:15.340Z,14.85
2018-09-13T00:49:16.748Z,14.90
2018-09-13T00:50:18.131Z,14.83
2018-09-13T00:51:19.512Z,14.87
2018-09-13T00:52:20.894Z,14.87
2018-09-13T00:53:22.286Z,14.79
2018-09-13T00:54:23.672Z,14.82
2018-09-13T00:55:25.061Z,14.87
2018-09-13T00:56:26.442Z,14.80
2018-09-13T00:57:27.824Z,14.75
2018-09-13T00:58:29.211Z,14.82
2018-09-13T00:59:30.583Z,14.87
2018-09-13T01:00:31.963Z,14.79
2018-09-13T01:01:33.361Z,14.72
2018-09-13T01:02:34.743Z,14.80
2018-09-13T01:03:36.139Z,14.82
2018-09-13T01:04:37.521Z,14.83
2018-09-13T01:05:38.916Z,14.80
2018-09-13T01:06:40.306Z,14.85
2018-09-13T01:07:41.697Z,14.78
2018-09-13T01:08:43.081Z,14.74
2018-09-13T01:09:44.459Z,14.83
2018-09-13T01:10:45.859Z,14.79
2018-09-13T01:11:47.230Z,14.78
2018-09-13T01:12:48.612Z,14.75
2018-09-13T01:13:50.008Z,14.82
2018-09-13T01:14:51.376Z,14.80
2018-09-13T01:15:52.763Z,14.78
2018-09-13T01:16:54.152Z,14.86
2018-09-13T01:17:55.555Z,14.80
2018-09-13T01:18:56.938Z,14.85
2018-09-13T01:19:58.322Z,14.78
2018-09-13T01:20:59.710Z,14.85
2018-09-13T01:22:01.097Z,14.83
2018-09-13T01:23:02.491Z,14.85
2018-09-13T01:24:03.866Z,14.85
2018-09-13T01:25:05.263Z,14.83
2018-09-13T01:26:06.644Z,14.82
2018-09-13T01:27:08.041Z,14.80
2018-09-13T01:28:09.431Z,14.85
2018-09-13T01:29:10.825Z,14.82
2018-09-13T01:30:12.207Z,14.80
2018-09-13T01:31:13.603Z,14.85
2018-09-13T01:32:14.982Z,14.82
2018-09-13T01:33:16.361Z,14.85
2018-09-13T01:34:17.753Z,14.80
2018-09-13T01:35:19.130Z,14.83
2018-09-13T01:36:20.520Z,14.75
2018-09-13T01:37:21.904Z,14.71
2018-09-13T01:38:23.287Z,14.75
2018-09-13T01:39:24.670Z,14.72
2018-09-13T01:40:26.058Z,14.83
2018-09-13T01:41:27.437Z,14.85
2018-09-13T01:42:28.822Z,14.74
2018-09-13T01:43:30.212Z,14.80
2018-09-13T01:44:31.614Z,14.74
2018-09-13T01:45:32.993Z,14.72
2018-09-13T01:46:34.382Z,14.83
2018-09-13T01:47:35.760Z,14.80
2018-09-13T01:48:37.141Z,14.72
2018-09-13T01:49:38.529Z,14.82
2018-09-13T01:50:39.911Z,14.69
2018-09-13T01:51:41.295Z,14.80
2018-09-13T01:52:42.668Z,14.75
2018-09-13T01:53:44.053Z,14.79
2018-09-13T01:54:45.436Z,14.74
2018-09-13T01:55:46.821Z,14.69
2018-09-13T01:56:48.210Z,14.75
2018-09-13T01:57:49.605Z,14.66
2018-09-13T01:58:51.002Z,14.72
2018-09-13T01:59:52.392Z,14.67
2018-09-13T02:00:53.768Z,14.82
2018-09-13T02:01:55.153Z,14.72
2018-09-13T02:02:57.072Z,14.78
2018-09-13T02:03:58.462Z,14.72
2018-09-13T02:04:59.842Z,14.75
2018-09-13T02:06:01.226Z,14.79
2018-09-13T02:07:02.620Z,14.79
2018-09-13T02:08:03.996Z,14.75
2018-09-13T02:09:05.391Z,14.79
2018-09-13T02:10:06.771Z,14.72
2018-09-13T02:11:08.154Z,14.71
2018-09-13T02:12:09.531Z,14.75
2018-09-13T02:13:10.916Z,14.69
2018-09-13T02:14:12.306Z,14.75
2018-09-13T02:15:13.695Z,14.75
2018-09-13T02:16:15.080Z,14.78
2018-09-13T02:17:16.454Z,14.78
2018-09-13T02:18:17.841Z,14.75
2018-09-13T02:19:19.239Z,14.75
2018-09-13T02:20:20.620Z,14.78
2018-09-13T02:21:22.001Z,14.63
2018-09-13T02:22:23.379Z,14.71
2018-09-13T02:23:24.760Z,14.78
2018-09-13T02:24:26.152Z,14.71
2018-09-13T02:25:27.527Z,14.80
2018-09-13T02:26:28.919Z,14.69
2018-09-13T02:27:30.302Z,14.66
2018-09-13T02:28:31.689Z,14.66
2018-09-13T02:29:33.074Z,14.63
2018-09-13T02:30:34.462Z,14.69
2018-09-13T02:31:35.841Z,14.66
2018-09-13T02:32:37.228Z,14.64
2018-09-13T02:33:38.618Z,14.66
2018-09-13T02:34:40.007Z,14.60
2018-09-13T02:35:41.394Z,14.64
2018-09-13T02:36:42.774Z,14.64
2018-09-13T02:37:44.156Z,14.71
2018-09-13T02:38:45.548Z,14.64
2018-09-13T02:39:46.936Z,14.59
2018-09-13T02:40:48.318Z,14.49
2018-09-13T02:41:49.707Z,14.57
2018-09-13T02:42:51.093Z,14.48
2018-09-13T02:43:52.475Z,14.59
2018-09-13T02:44:53.862Z,14.56
2018-09-13T02:45:55.247Z,14.56
2018-09-13T02:46:56.639Z,14.52
2018-09-13T02:47:58.021Z,14.59
2018-09-13T02:48:59.407Z,14.56
2018-09-13T02:50:00.775Z,14.53
2018-09-13T02:51:02.167Z,14.49
2018-09-13T02:52:03.541Z,14.56
2018-09-13T02:53:04.915Z,14.52
2018-09-13T02:54:06.310Z,14.52
2018-09-13T02:55:07.687Z,14.57
2018-09-13T02:56:09.087Z,14.48
2018-09-13T02:57:10.453Z,14.54
2018-09-13T02:58:11.846Z,14.56
2018-09-13T02:59:13.231Z,14.54
2018-09-13T03:00:14.628Z,14.52
2018-09-13T03:01:16.010Z,14.48
2018-09-13T03:02:17.398Z,14.48
2018-09-13T03:03:18.793Z,14.39
2018-09-13T03:04:20.177Z,14.49
2018-09-13T03:05:21.556Z,14.45
2018-09-13T03:06:23.481Z,14.48
2018-09-13T03:07:24.874Z,14.42
2018-09-13T03:08:26.313Z,14.52
2018-09-13T03:09:27.613Z,14.42
2018-09-13T03:10:28.999Z,14.46
2018-09-13T03:11:30.373Z,14.45
2018-09-13T03:12:31.750Z,14.42
2018-09-13T03:13:33.138Z,14.46
2018-09-13T03:14:34.531Z,14.52
2018-09-13T03:15:35.917Z,14.45
2018-09-13T03:16:37.296Z,14.42
2018-09-13T03:17:38.695Z,14.45
2018-09-13T03:18:40.066Z,14.39
2018-09-13T03:19:41.444Z,14.42
2018-09-13T03:20:42.848Z,14.45
2018-09-13T03:21:44.223Z,14.41
2018-09-13T03:22:46.467Z,14.45
2018-09-13T03:23:47.861Z,14.42
2018-09-13T03:24:49.244Z,14.39
2018-09-13T03:25:50.628Z,14.45
2018-09-13T03:26:52.003Z,14.42
2018-09-13T03:28:07.019Z,14.30
2018-09-13T03:29:08.409Z,14.41
2018-09-13T03:30:09.803Z,14.44
2018-09-13T03:31:11.170Z,14.41
2018-09-13T03:32:12.558Z,14.42
2018-09-13T03:33:13.948Z,14.42
2018-09-13T03:34:15.324Z,14.45
2018-09-13T03:35:16.719Z,14.48
2018-09-13T03:36:18.146Z,14.39
2018-09-13T03:37:19.474Z,14.39
2018-09-13T03:38:20.864Z,14.39
2018-09-13T03:39:22.252Z,14.31
2018-09-13T03:40:23.623Z,14.35
2018-09-13T03:41:25.016Z,14.38
2018-09-13T03:42:26.411Z,14.38
2018-09-13T03:43:27.787Z,14.34
2018-09-13T03:44:29.187Z,14.38
2018-09-13T03:45:30.560Z,14.38
2018-09-13T03:46:31.937Z,14.36
2018-09-13T03:47:33.317Z,14.41
2018-09-13T03:48:34.701Z,14.38
2018-09-13T03:49:36.086Z,14.36
2018-09-13T03:50:37.454Z,14.42
2018-09-13T03:51:38.847Z,14.35
2018-09-13T03:52:40.248Z,14.42
2018-09-13T03:53:41.630Z,14.49
2018-09-13T03:54:43.005Z,14.39
2018-09-13T03:55:44.390Z,14.39
2018-09-13T03:56:45.768Z,14.35
2018-09-13T03:57:47.166Z,14.35
2018-09-13T03:58:48.619Z,14.36
2018-09-13T03:59:49.999Z,14.36
2018-09-13T04:00:51.392Z,14.38
2018-09-13T04:01:52.819Z,14.35
2018-09-13T04:02:54.194Z,14.35
2018-09-13T04:03:55.577Z,14.34
2018-09-13T04:04:56.965Z,14.38
2018-09-13T04:05:58.342Z,14.39
2018-09-13T04:06:59.732Z,14.31
2018-09-13T04:08:01.115Z,14.31
2018-09-13T04:09:02.541Z,14.31
2018-09-13T04:10:03.907Z,14.38
2018-09-13T04:11:05.277Z,14.39
2018-09-13T04:12:06.677Z,14.35
2018-09-13T04:13:08.061Z,14.38
2018-09-13T04:14:09.455Z,14.31
2018-09-13T04:15:10.831Z,14.44
2018-09-13T04:16:12.228Z,14.46
2018-09-13T04:17:13.610Z,14.42
2018-09-13T04:18:14.991Z,14.39
2018-09-13T04:19:16.381Z,14.46
2018-09-13T04:20:17.757Z,14.30
2018-09-13T04:21:19.139Z,14.46
2018-09-13T04:22:20.528Z,14.44
2018-09-13T04:23:21.914Z,14.30
2018-09-13T04:24:23.305Z,14.39
2018-09-13T04:25:24.686Z,14.35
2018-09-13T04:26:26.068Z,14.36
2018-09-13T04:27:27.439Z,14.45
2018-09-13T04:28:28.839Z,14.48
2018-09-13T04:29:30.234Z,14.41
2018-09-13T04:30:31.614Z,14.44
2018-09-13T04:31:33.002Z,14.44
2018-09-13T04:32:34.390Z,14.44
2018-09-13T04:33:35.778Z,14.39
2018-09-13T04:34:37.169Z,14.42
2018-09-13T04:35:38.632Z,14.30
2018-09-13T04:36:39.897Z,14.39
2018-09-13T04:37:41.286Z,14.35
2018-09-13T04:38:42.667Z,14.31
2018-09-13T04:39:44.048Z,14.31
2018-09-13T04:40:46.191Z,14.34
2018-09-13T04:41:47.555Z,14.36
2018-09-13T04:42:48.927Z,14.39
2018-09-13T04:43:50.341Z,14.30
2018-09-13T04:44:51.729Z,14.31
2018-09-13T04:45:53.129Z,14.31
2018-09-13T04:46:54.517Z,14.29
2018-09-13T04:47:55.897Z,14.31
2018-09-13T04:48:57.342Z,14.30
2018-09-13T04:49:58.671Z,14.30
2018-09-13T04:51:00.171Z,14.31
2018-09-13T04:52:01.538Z,14.31
2018-09-13T04:53:02.921Z,14.30
2018-09-13T04:54:04.313Z,14.35
2018-09-13T04:55:05.704Z,14.34
2018-09-13T04:56:07.094Z,14.31
2018-09-13T04:57:08.481Z,14.30
2018-09-13T04:58:09.868Z,14.38
2018-09-13T04:59:11.265Z,14.31
2018-09-13T05:00:12.681Z,14.30
2018-09-13T05:01:14.035Z,14.34
2018-09-13T05:02:15.436Z,14.39
2018-09-13T05:03:16.808Z,14.35
2018-09-13T05:04:18.207Z,14.36
2018-09-13T05:05:19.597Z,14.29
2018-09-13T05:06:21.057Z,14.39
2018-09-13T05:07:22.447Z,14.36
2018-09-13T05:08:23.838Z,14.36
2018-09-13T05:09:25.223Z,14.35
2018-09-13T05:10:26.612Z,14.42
2018-09-13T05:11:28.099Z,14.42
2018-09-13T05:12:29.475Z,14.48
2018-09-13T05:13:30.865Z,14.42
2018-09-13T05:14:32.251Z,14.44
2018-09-13T05:15:33.640Z,14.41
2018-09-13T05:16:35.014Z,14.45
2018-09-13T05:17:36.417Z,14.46
2018-09-13T05:18:37.806Z,14.45
2018-09-13T05:19:39.186Z,14.41
2018-09-13T05:20:40.583Z,14.38
2018-09-13T05:21:41.964Z,14.39
2018-09-13T05:22:43.430Z,14.35
2018-09-13T05:23:44.808Z,14.45
2018-09-13T05:24:46.200Z,14.41
2018-09-13T05:25:47.581Z,14.36
2018-09-13T05:26:48.965Z,14.45
2018-09-13T05:27:50.349Z,14.48
2018-09-13T05:28:51.748Z,14.39
2018-09-13T05:29:53.140Z,14.45
2018-09-13T05:30:54.518Z,14.36
2018-09-13T05:31:55.937Z,14.46
2018-09-13T05:32:57.301Z,14.39
2018-09-13T05:33:59.297Z,14.38
2018-09-13T05:35:00.677Z,14.42
2018-09-13T05:36:02.089Z,14.42
2018-09-13T05:37:03.489Z,14.42
2018-09-13T05:38:04.873Z,14.44
2018-09-13T05:39:06.280Z,14.41
2018-09-13T05:40:07.657Z,14.48
2018-09-13T05:41:09.088Z,14.44
2018-09-13T05:42:10.473Z,14.49
2018-09-13T05:43:11.874Z,14.41
2018-09-13T05:44:14.052Z,14.52
2018-09-13T05:45:15.445Z,14.48
2018-09-13T05:46:16.835Z,14.60
2018-09-13T05:47:18.236Z,14.56
2018-09-13T05:48:19.680Z,14.52
2018-09-13T05:49:21.064Z,14.53
2018-09-13T05:50:22.463Z,14.69
2018-09-13T05:51:23.840Z,14.63
2018-09-13T05:52:25.264Z,14.66
2018-09-13T05:53:26.660Z,14.66
2018-09-13T05:54:28.047Z,14.64
2018-09-13T05:55:29.434Z,14.66
2018-09-13T05:56:30.824Z,14.63
2018-09-13T05:57:32.222Z,14.66
2018-09-13T05:58:33.618Z,14.61
2018-09-13T05:59:35.005Z,14.63
2018-09-13T06:00:36.384Z,14.66
2018-09-13T06:01:37.798Z,14.69
2018-09-13T06:02:39.153Z,14.67
2018-09-13T06:03:40.543Z,14.74
2018-09-13T06:04:41.919Z,14.72
2018-09-13T06:05:43.315Z,14.72
2018-09-13T06:06:44.711Z,14.61
2018-09-13T06:07:46.091Z,14.82
2018-09-13T06:08:47.490Z,14.69
2018-09-13T06:09:48.876Z,14.79
2018-09-13T06:10:50.267Z,14.71
2018-09-13T06:11:51.701Z,14.69
2018-09-13T06:12:53.095Z,14.71
2018-09-13T06:13:54.488Z,14.79
2018-09-13T06:14:55.873Z,14.75
2018-09-13T06:15:57.868Z,14.82
2018-09-13T06:16:59.283Z,14.82
2018-09-13T06:18:00.675Z,14.79
2018-09-13T06:19:02.062Z,14.91
2018-09-13T06:20:03.444Z,14.83
2018-09-13T06:21:04.848Z,14.86
2018-09-13T06:22:06.224Z,14.87
2018-09-13T06:23:07.609Z,14.87
2018-09-13T06:24:08.989Z,14.91
2018-09-13T06:25:10.386Z,14.95
2018-09-13T06:26:11.774Z,14.85
2018-09-13T06:27:13.166Z,14.85
2018-09-13T06:28:14.543Z,14.93
2018-09-13T06:29:15.942Z,14.94
2018-09-13T06:30:17.326Z,14.94
2018-09-13T06:31:18.719Z,15.04
2018-09-13T06:32:20.102Z,14.98
2018-09-13T06:33:21.508Z,15.03
2018-09-13T06:34:22.893Z,15.04
2018-09-13T06:35:24.289Z,15.07
2018-09-13T06:36:25.739Z,15.05
2018-09-13T06:37:27.073Z,15.04
2018-09-13T06:38:28.554Z,15.05
2018-09-13T06:39:29.812Z,15.05
2018-09-13T06:40:31.202Z,15.07
2018-09-13T06:41:32.586Z,15.09
2018-09-13T06:42:34.009Z,15.19
2018-09-13T06:43:35.326Z,15.07
2018-09-13T06:44:36.715Z,15.15
2018-09-13T06:45:38.104Z,15.18
2018-09-13T06:46:39.498Z,15.20
2018-09-13T06:47:40.887Z,15.22
2018-09-13T06:48:42.319Z,15.19
2018-09-13T06:49:43.625Z,15.16
2018-09-13T06:50:45.011Z,15.11
2018-09-13T06:51:46.405Z,15.19
2018-09-13T06:52:47.840Z,15.23
2018-09-13T06:53:49.217Z,15.22
2018-09-13T06:54:50.611Z,15.22
2018-09-13T06:55:51.993Z,15.27
2018-09-13T06:56:53.378Z,15.25
2018-09-13T06:57:54.767Z,15.18
2018-09-13T06:58:56.157Z,15.18
2018-09-13T06:59:57.557Z,15.20
2018-09-13T07:00:58.948Z,15.20
2018-09-13T07:02:00.335Z,15.28
2018-09-13T07:03:01.745Z,15.18
2018-09-13T07:04:03.124Z,15.18
2018-09-13T07:05:04.523Z,15.20
2018-09-13T07:06:05.920Z,15.31
2018-09-13T07:07:07.303Z,15.18
2018-09-13T07:08:08.709Z,15.33
2018-09-13T07:09:10.169Z,15.23
2018-09-13T07:10:11.490Z,15.22
2018-09-13T07:11:12.878Z,15.22
2018-09-13T07:12:14.258Z,15.28
2018-09-13T07:13:15.654Z,15.34
2018-09-13T07:14:17.037Z,15.28
2018-09-13T07:15:18.438Z,15.30
2018-09-13T07:16:19.814Z,15.37
2018-09-13T07:17:21.212Z,15.37
2018-09-13T07:18:22.585Z,15.31
2018-09-13T07:19:23.999Z,15.40
2018-09-13T07:20:25.360Z,15.27
2018-09-13T07:21:26.749Z,15.40
2018-09-13T07:22:28.136Z,15.34
2018-09-13T07:23:29.567Z,15.41
2018-09-13T07:24:30.924Z,15.34
2018-09-13T07:25:32.321Z,15.38
2018-09-13T07:26:33.707Z,15.44
2018-09-13T07:27:35.112Z,15.44
2018-09-13T07:28:36.491Z,15.37
2018-09-13T07:29:37.879Z,15.41
2018-09-13T07:30:39.270Z,15.46
2018-09-13T07:31:40.663Z,15.40
2018-09-13T07:32:42.041Z,15.40
2018-09-13T07:33:43.436Z,15.37
2018-09-13T07:34:44.826Z,15.44
2018-09-13T07:35:46.720Z,15.41
2018-09-13T07:36:48.148Z,15.51
2018-09-13T07:37:49.503Z,15.52
2018-09-13T07:38:50.892Z,15.53
2018-09-13T07:39:52.283Z,15.60
2018-09-13T07:40:53.672Z,15.58
2018-09-13T07:41:55.065Z,15.74
2018-09-13T07:42:56.533Z,15.62
2018-09-13T07:43:57.846Z,15.77
2018-09-13T07:44:59.222Z,15.71
2018-09-13T07:46:00.616Z,15.74
2018-09-13T07:47:02.009Z,15.73
2018-09-13T07:48:03.416Z,15.74
2018-09-13T07:49:04.811Z,15.68
2018-09-13T07:50:06.191Z,15.64
2018-09-13T07:51:07.624Z,15.59
2018-09-13T07:52:09.022Z,15.59
2018-09-13T07:53:10.409Z,15.52
2018-09-13T07:54:11.799Z,15.56
2018-09-13T07:55:13.179Z,15.44
2018-09-13T07:56:14.610Z,15.43
2018-09-13T07:57:15.960Z,15.30
2018-09-13T07:58:17.342Z,15.38
2018-09-13T07:59:18.734Z,15.34
2018-09-13T08:00:20.117Z,15.34
2018-09-13T08:01:21.518Z,15.40
2018-09-13T08:02:22.913Z,15.35
2018-09-13T08:03:24.299Z,15.41
2018-09-13T08:04:25.697Z,15.43
2018-09-13T08:05:27.082Z,15.37
2018-09-13T08:06:28.468Z,15.43
2018-09-13T08:07:29.851Z,15.52
2018-09-13T08:08:31.244Z,15.53
2018-09-13T08:09:32.630Z,15.55
2018-09-13T08:10:34.031Z,15.62
2018-09-13T08:11:35.458Z,15.67
2018-09-13T08:12:36.865Z,15.67
2018-09-13T08:13:38.265Z,15.74
2018-09-13T08:14:39.671Z,15.70
2018-09-13T08:15:41.090Z,15.78
2018-09-13T08:16:42.463Z,15.85
2018-09-13T08:17:43.848Z,15.77
2018-09-13T08:18:45.324Z,15.77
2018-09-13T08:19:46.636Z,15.70
2018-09-13T08:20:48.034Z,15.76
2018-09-13T08:21:49.463Z,15.68
2018-09-13T08:22:50.810Z,15.76
2018-09-13T08:23:52.197Z,15.71
2018-09-13T08:24:53.590Z,15.81
2018-09-13T08:25:55.048Z,15.85
2018-09-13T08:26:56.479Z,15.85
2018-09-13T08:27:57.845Z,15.80
2018-09-13T08:28:59.227Z,15.77
2018-09-13T08:30:00.661Z,15.77
2018-09-13T08:31:02.057Z,15.86
2018-09-13T08:32:03.437Z,15.76
2018-09-13T08:33:04.837Z,15.78
2018-09-13T08:34:06.213Z,15.89
2018-09-13T08:35:07.601Z,15.95
2018-09-13T08:36:08.993Z,15.91
2018-09-13T08:37:10.423Z,15.99
2018-09-13T08:38:11.783Z,15.93
2018-09-13T08:39:13.169Z,15.95
2018-09-13T08:40:14.583Z,16.10
2018-09-13T08:41:15.952Z,16.10
2018-09-13T08:42:17.343Z,16.25
2018-09-13T08:43:18.726Z,16.16
2018-09-13T08:44:20.137Z,16.23
2018-09-13T08:45:21.539Z,16.17
2018-09-13T08:46:22.952Z,16.25
2018-09-13T08:47:24.344Z,16.23
2018-09-13T08:48:25.720Z,16.25
2018-09-13T08:49:27.110Z,16.26
2018-09-13T08:50:28.505Z,16.29
2018-09-13T08:51:29.895Z,16.32
2018-09-13T08:52:31.286Z,16.36
2018-09-13T08:53:32.672Z,16.47
2018-09-13T08:54:34.106Z,16.41
2018-09-13T08:55:35.469Z,16.48
2018-09-13T08:56:36.864Z,16.51
2018-09-13T08:57:38.282Z,16.57
2018-09-13T08:58:39.667Z,16.52
2018-09-13T08:59:41.027Z,16.65
2018-09-13T09:00:42.417Z,16.59
2018-09-13T09:01:43.778Z,16.60
2018-09-13T09:02:45.171Z,16.65
2018-09-13T09:03:46.574Z,16.63
2018-09-13T09:04:48.001Z,16.72
2018-09-13T09:05:49.399Z,16.73
2018-09-13T09:06:50.809Z,16.78
2018-09-13T09:07:52.195Z,16.81
2018-09-13T09:08:53.590Z,16.88
2018-09-13T09:09:54.988Z,16.90
2018-09-13T09:10:56.372Z,16.95
2018-09-13T09:11:57.846Z,16.90
2018-09-13T09:12:59.163Z,16.95
2018-09-13T09:14:00.546Z,16.96
2018-09-13T09:15:01.950Z,17.10
2018-09-13T09:16:03.341Z,17.02
2018-09-13T09:17:04.732Z,17.12
2018-09-13T09:18:06.148Z,17.17
2018-09-13T09:19:07.520Z,17.14
2018-09-13T09:20:08.917Z,17.21
2018-09-13T09:21:10.311Z,17.07
2018-09-13T09:22:11.698Z,17.07
2018-09-13T09:23:13.086Z,17.06
2018-09-13T09:24:14.481Z,17.07
2018-09-13T09:25:15.881Z,17.05
2018-09-13T09:26:17.273Z,17.02
2018-09-13T09:27:19.453Z,17.06
2018-09-13T09:28:20.882Z,16.99
2018-09-13T09:29:22.330Z,17.02
2018-09-13T09:30:23.710Z,16.96
2018-09-13T09:31:25.101Z,16.98
2018-09-13T09:32:26.507Z,16.99
2018-09-13T09:33:27.905Z,16.96
2018-09-13T09:34:29.299Z,16.96
2018-09-13T09:35:30.768Z,16.92
2018-09-13T09:36:32.036Z,16.92
2018-09-13T09:37:33.427Z,17.00
2018-09-13T09:38:34.820Z,16.90
2018-09-13T09:39:36.206Z,16.95
2018-09-13T09:40:37.607Z,16.99
2018-09-13T09:41:38.990Z,16.91
2018-09-13T09:42:40.958Z,16.92
2018-09-13T09:43:42.359Z,16.92
2018-09-13T09:44:43.740Z,16.98
2018-09-13T09:45:45.144Z,17.00
2018-09-13T09:46:46.536Z,17.10
2018-09-13T09:47:47.928Z,17.05
2018-09-13T09:48:49.327Z,17.10
2018-09-13T09:49:50.726Z,17.09
2018-09-13T09:50:52.110Z,17.06
2018-09-13T09:51:53.590Z,17.07
2018-09-13T09:52:54.849Z,17.15
2018-09-13T09:53:56.249Z,17.09
2018-09-13T09:54:57.639Z,17.10
2018-09-13T09:55:59.034Z,17.21
2018-09-13T09:57:00.416Z,17.18
2018-09-13T09:58:01.832Z,17.22
2018-09-13T09:59:03.196Z,17.15
2018-09-13T10:00:04.590Z,17.30
2018-09-13T10:01:05.978Z,17.25
2018-09-13T10:02:07.369Z,17.32
2018-09-13T10:03:08.801Z,17.30
2018-09-13T10:04:10.160Z,17.36
2018-09-13T10:05:11.505Z,17.36
2018-09-13T10:06:12.894Z,17.45
2018-09-13T10:07:14.299Z,17.38
2018-09-13T10:08:15.708Z,17.39
2018-09-13T10:09:17.106Z,17.39
2018-09-13T10:10:18.538Z,17.39
2018-09-13T10:11:19.944Z,17.36
2018-09-13T10:12:21.325Z,17.40
2018-09-13T10:13:22.748Z,17.40
2018-09-13T10:14:24.136Z,17.43
2018-09-13T10:15:25.550Z,17.38
2018-09-13T10:16:26.935Z,17.38
2018-09-13T10:17:28.324Z,17.38
2018-09-13T10:18:29.714Z,17.36
2018-09-13T10:19:31.110Z,17.40
2018-09-13T10:20:32.635Z,17.42
2018-09-13T10:21:33.905Z,17.53
2018-09-13T10:22:35.295Z,17.47
2018-09-13T10:23:36.706Z,17.51
2018-09-13T10:24:38.091Z,17.63
2018-09-13T10:25:39.511Z,17.70
2018-09-13T10:26:40.874Z,17.62
2018-09-13T10:27:42.293Z,17.81
2018-09-13T10:28:43.769Z,17.81
2018-09-13T10:29:45.094Z,17.77
2018-09-13T10:30:46.997Z,17.83
2018-09-13T10:31:48.389Z,17.92
2018-09-13T10:32:49.784Z,17.96
2018-09-13T10:33:51.183Z,18.02
2018-09-13T10:34:52.572Z,18.13
2018-09-13T10:35:53.970Z,18.20
2018-09-13T10:36:55.788Z,18.20
2018-09-13T10:37:57.204Z,18.14
2018-09-13T10:38:58.589Z,18.26
2018-09-13T10:39:59.973Z,18.28
2018-09-13T10:41:01.379Z,18.26
2018-09-13T10:42:02.806Z,18.35
2018-09-13T10:43:04.182Z,18.38
2018-09-13T10:44:05.567Z,18.41
2018-09-13T10:45:06.959Z,18.36
2018-09-13T10:46:08.351Z,18.39
2018-09-13T10:47:09.747Z,18.32
2018-09-13T10:48:11.207Z,18.35
2018-09-13T10:49:12.488Z,18.41
2018-09-13T10:50:13.885Z,18.41
2018-09-13T10:51:15.269Z,18.36
2018-09-13T10:52:16.705Z,18.34
2018-09-13T10:53:18.074Z,18.36
2018-09-13T10:54:19.496Z,18.29
2018-09-13T10:55:20.935Z,18.39
2018-09-13T10:56:22.298Z,18.35
2018-09-13T10:57:23.689Z,18.44
2018-09-13T10:58:25.086Z,18.46
2018-09-13T10:59:26.492Z,18.46
2018-09-13T11:00:27.885Z,18.44
2018-09-13T11:01:29.297Z,18.44
2018-09-13T11:02:30.702Z,18.49
2018-09-13T11:03:32.084Z,18.56
2018-09-13T11:04:33.510Z,18.47
2018-09-13T11:05:34.891Z,18.53
2018-09-13T11:06:36.296Z,18.56
2018-09-13T11:07:37.670Z,18.59
2018-09-13T11:08:39.068Z,18.68
2018-09-13T11:09:40.462Z,18.76
2018-09-13T11:10:41.984Z,18.79
2018-09-13T11:11:43.223Z,18.76
2018-09-13T11:12:44.611Z,18.94
2018-09-13T11:13:46.016Z,19.01
2018-09-13T11:14:47.733Z,19.07
2018-09-13T11:15:49.067Z,19.05
2018-09-13T11:16:50.467Z,18.93
2018-09-13T11:17:52.369Z,18.91
2018-09-13T11:18:53.737Z,18.91
2018-09-13T11:19:55.129Z,18.87
2018-09-13T11:20:56.525Z,18.96
2018-09-13T11:21:57.931Z,19.02
2018-09-13T11:22:59.317Z,18.99
2018-09-13T11:24:00.727Z,18.97
2018-09-13T11:25:02.137Z,19.05
2018-09-13T11:26:03.530Z,19.06
2018-09-13T11:27:04.925Z,19.10
2018-09-13T11:28:06.343Z,19.12
2018-09-13T11:29:07.741Z,19.16
2018-09-13T11:30:09.129Z,19.05
2018-09-13T11:31:10.522Z,19.02
2018-09-13T11:32:11.918Z,19.05
2018-09-13T11:33:13.350Z,18.96
2018-09-13T11:34:14.797Z,18.91
2018-09-13T11:35:16.236Z,18.90
2018-09-13T11:36:17.612Z,18.82
2018-09-13T11:37:19.004Z,18.84
2018-09-13T11:38:20.404Z,18.72
2018-09-13T11:39:21.800Z,18.57
2018-09-13T11:40:23.302Z,18.46
2018-09-13T11:41:24.633Z,18.35
2018-09-13T11:42:26.013Z,18.35
2018-09-13T11:43:27.430Z,18.32
2018-09-13T11:44:28.842Z,18.26
2018-09-13T11:45:30.257Z,18.36
2018-09-13T11:46:31.661Z,18.29
2018-09-13T11:47:33.075Z,18.29
2018-09-13T11:48:34.491Z,18.36
2018-09-13T11:49:36.617Z,18.36
2018-09-13T11:50:38.037Z,18.17
2018-09-13T11:51:39.435Z,18.19
2018-09-13T11:52:40.817Z,18.19
2018-09-13T11:53:42.217Z,18.10
2018-09-13T11:54:43.626Z,18.10
2018-09-13T11:55:45.022Z,18.09
2018-09-13T11:56:46.419Z,18.13
2018-09-13T11:57:47.818Z,18.07
2018-09-13T11:58:49.212Z,18.05
2018-09-13T11:59:50.593Z,18.04
2018-09-13T12:00:51.990Z,18.01
2018-09-13T12:01:53.384Z,18.09
2018-09-13T12:02:54.782Z,18.05
2018-09-13T12:03:56.181Z,18.02
2018-09-13T12:04:57.588Z,17.99
2018-09-13T12:05:59.014Z,17.96
2018-09-13T12:07:00.407Z,17.95
2018-09-13T12:08:01.829Z,17.86
2018-09-13T12:09:03.217Z,17.80
2018-09-13T12:10:04.625Z,17.77
2018-09-13T12:11:06.026Z,17.77
2018-09-13T12:12:07.427Z,17.70
2018-09-13T12:13:08.847Z,17.71
2018-09-13T12:14:10.281Z,17.71
2018-09-13T12:15:11.676Z,17.68
2018-09-13T12:16:13.059Z,17.70
2018-09-13T12:17:14.456Z,17.70
2018-09-13T12:18:15.875Z,17.71
2018-09-13T12:19:17.252Z,17.66
2018-09-13T12:20:18.639Z,17.62
2018-09-13T12:21:20.035Z,17.66
2018-09-13T12:22:21.477Z,17.68
2018-09-13T12:23:22.775Z,17.47
2018-09-13T12:24:24.165Z,17.55
2018-09-13T12:25:25.566Z,17.54
2018-09-13T12:26:26.947Z,17.53
2018-09-13T12:27:28.405Z,17.57
2018-09-13T12:28:29.688Z,17.49
2018-09-13T12:29:31.086Z,17.53
2018-09-13T12:30:32.477Z,17.51
2018-09-13T12:31:33.877Z,17.58
2018-09-13T12:32:35.269Z,17.53
2018-09-13T12:33:36.681Z,17.53
2018-09-13T12:34:38.056Z,17.54
2018-09-13T12:35:39.440Z,17.51
2018-09-13T12:36:40.828Z,17.47
2018-09-13T12:37:42.229Z,17.51
2018-09-13T12:38:43.631Z,17.47
2018-09-13T12:39:45.013Z,17.47
2018-09-13T12:40:46.465Z,17.47
2018-09-13T12:41:48.255Z,17.42
2018-09-13T12:42:49.654Z,17.43
2018-09-13T12:43:51.185Z,17.42
2018-09-13T12:44:52.569Z,17.40
2018-09-13T12:45:53.968Z,17.40
2018-09-13T12:46:55.367Z,17.42
2018-09-13T12:47:56.755Z,17.42
2018-09-13T12:48:58.149Z,17.43
2018-09-13T12:49:59.609Z,17.39
2018-09-13T12:51:00.930Z,17.42
2018-09-13T12:52:02.332Z,17.36
2018-09-13T12:53:03.716Z,17.39
2018-09-13T12:54:05.118Z,17.42
2018-09-13T12:55:06.500Z,17.42
2018-09-13T12:56:07.898Z,17.40
2018-09-13T12:57:09.331Z,17.46
2018-09-13T12:58:10.719Z,17.46
2018-09-13T12:59:12.110Z,17.45
2018-09-13T13:00:13.507Z,17.45
2018-09-13T13:01:14.922Z,17.45
2018-09-13T13:02:16.308Z,17.45
2018-09-13T13:03:17.698Z,17.47
2018-09-13T13:04:19.095Z,17.43
2018-09-13T13:05:20.488Z,17.46
2018-09-13T13:06:21.869Z,17.43
2018-09-13T13:07:23.285Z,17.42
2018-09-13T13:08:24.739Z,17.39
2018-09-13T13:09:26.079Z,17.42
2018-09-13T13:10:27.483Z,17.45